Time;durP1;ratioP1;P1;durP2;ratioP2;P2;SDS_P1;SDS_P2;PMS_P1;PMS_P2;Temp;Humidity;BMP_temperature;BMP_pressure;BME280_temperature;BME280_humidity;BME280_pressure;Samples;Min_cycle;Max_cycle;Signal;HPM_P1;HPM_P2
2022/01/02 00:01:52;;;;;;;13.60;5.90;;;4.40;96.00;;;;;;6284032;22;20195;-85
2022/01/02 00:04:22;;;;;;;13.40;5.67;;;4.30;96.20;;;;;;6282975;22;20271;-85
2022/01/02 00:06:51;;;;;;;9.63;5.53;;;4.30;96.40;;;;;;6283133;22;20689;-84
2022/01/02 00:09:30;;;;;;;9.07;5.23;;;4.30;96.20;;;;;;6283689;22;20558;-84
2022/01/02 00:12:08;;;;;;;12.30;5.33;;;4.30;96.30;;;;;;6283785;22;20163;-84
2022/01/02 00:14:36;;;;;;;9.07;4.70;;;4.30;96.30;;;;;;6283548;22;20203;-86
2022/01/02 00:17:06;;;;;;;11.10;5.63;;;4.40;96.20;;;;;;6283590;22;20675;-86
2022/01/02 00:19:34;;;;;;;10.90;5.57;;;4.40;96.20;;;;;;6283048;22;20193;-86
2022/01/02 00:22:06;;;;;;;10.23;5.53;;;4.40;96.00;;;;;;6284171;22;20664;-86
2022/01/02 00:24:33;;;;;;;9.90;5.80;;;4.30;96.00;;;;;;6282921;22;20199;-84
2022/01/02 00:27:02;;;;;;;9.27;5.60;;;4.30;96.00;;;;;;6283369;22;20220;-84
2022/01/02 00:29:29;;;;;;;10.80;5.57;;;4.30;96.10;;;;;;6281021;22;20743;-88
2022/01/02 00:31:56;;;;;;;10.77;5.80;;;4.30;96.00;;;;;;6281452;22;20171;-84
2022/01/02 00:34:23;;;;;;;7.77;5.10;;;4.20;96.10;;;;;;6280484;22;20212;-85
2022/01/02 00:36:50;;;;;;;8.43;5.37;;;4.30;96.10;;;;;;6281500;22;20168;-84
2022/01/02 00:39:18;;;;;;;11.17;6.27;;;4.20;96.10;;;;;;6281289;22;20223;-86
2022/01/02 00:41:53;;;;;;;10.87;6.33;;;4.20;96.20;;;;;;6281804;22;20176;-87
2022/01/02 00:44:32;;;;;;;10.27;5.83;;;4.20;96.30;;;;;;6275185;22;20673;-86
2022/01/02 00:47:07;;;;;;;8.10;5.33;;;4.10;96.20;;;;;;6276063;22;20615;-85
2022/01/02 00:49:40;;;;;;;9.67;5.63;;;4.00;96.30;;;;;;6275216;22;20242;-86
2022/01/02 00:52:12;;;;;;;7.80;4.57;;;4.00;96.40;;;;;;6276481;22;20611;-86
2022/01/02 00:54:44;;;;;;;9.57;5.10;;;4.00;96.40;;;;;;6275108;22;20666;-86
2022/01/02 00:57:17;;;;;;;8.23;4.97;;;4.00;96.30;;;;;;6276762;22;20202;-86
2022/01/02 00:59:49;;;;;;;7.57;4.50;;;4.00;96.30;;;;;;6275938;22;20204;-86
2022/01/02 01:02:20;;;;;;;6.20;4.80;;;4.00;96.20;;;;;;6276392;22;20157;-86
2022/01/02 01:04:49;;;;;;;8.20;4.80;;;3.90;96.20;;;;;;6275327;22;20190;-86
2022/01/02 01:07:19;;;;;;;8.00;5.00;;;3.90;96.30;;;;;;6274910;22;20222;-86
2022/01/02 01:09:48;;;;;;;8.07;5.00;;;3.80;96.40;;;;;;6276024;22;20195;-85
2022/01/02 01:12:17;;;;;;;9.33;4.63;;;3.80;96.40;;;;;;6277983;22;20538;-85
2022/01/02 01:14:46;;;;;;;6.87;4.27;;;3.80;96.20;;;;;;6277192;22;20199;-85
2022/01/02 01:17:14;;;;;;;4.87;3.80;;;3.80;96.50;;;;;;6279114;22;20683;-85
2022/01/02 01:19:41;;;;;;;6.27;4.37;;;3.80;96.10;;;;;;6279073;22;20200;-85
2022/01/02 01:22:09;;;;;;;6.63;4.47;;;3.80;96.00;;;;;;6280654;22;20187;-85
2022/01/02 01:24:36;;;;;;;6.10;4.10;;;3.70;96.10;;;;;;6279181;22;20200;-85
2022/01/02 01:27:04;;;;;;;4.37;3.50;;;3.60;96.40;;;;;;6281227;22;20179;-84
2022/01/02 01:29:34;;;;;;;5.40;4.10;;;3.60;96.50;;;;;;6280604;22;20652;-85
2022/01/02 01:32:03;;;;;;;5.13;4.20;;;3.50;96.50;;;;;;6281329;22;20197;-85
2022/01/02 01:34:30;;;;;;;5.23;3.90;;;3.50;96.60;;;;;;6280245;22;20196;-85
2022/01/02 01:36:57;;;;;;;5.67;4.10;;;3.50;96.70;;;;;;6282041;22;20204;-85
2022/01/02 01:39:24;;;;;;;4.20;3.27;;;3.50;96.70;;;;;;6283905;22;20267;-86
2022/01/02 01:41:54;;;;;;;5.93;3.80;;;3.50;96.70;;;;;;6276278;22;20200;-85
2022/01/02 01:44:38;;;;;;;5.13;3.83;;;3.60;96.40;;;;;;6275193;22;20188;-86
2022/01/02 01:47:07;;;;;;;4.47;3.40;;;3.70;96.10;;;;;;6276910;22;20169;-86
2022/01/02 01:49:34;;;;;;;3.67;3.00;;;3.70;95.80;;;;;;6274611;22;20482;-85
2022/01/02 01:52:01;;;;;;;4.90;3.40;;;3.80;95.50;;;;;;6276348;22;20199;-86
2022/01/02 01:54:28;;;;;;;3.70;3.27;;;3.80;95.40;;;;;;6275225;22;20195;-85
2022/01/02 01:56:55;;;;;;;4.73;3.23;;;3.70;95.20;;;;;;6276199;22;20251;-85
2022/01/02 01:59:23;;;;;;;4.63;3.53;;;3.70;95.40;;;;;;6275291;22;20502;-85
2022/01/02 02:01:50;;;;;;;7.17;3.53;;;3.70;95.50;;;;;;6276241;22;20169;-85
2022/01/02 02:04:19;;;;;;;7.03;3.53;;;3.70;95.50;;;;;;6275627;22;20268;-86
2022/01/02 02:06:46;;;;;;;5.40;3.40;;;3.70;95.50;;;;;;6276510;22;20175;-87
2022/01/02 02:09:13;;;;;;;5.23;3.43;;;3.70;95.50;;;;;;6276023;22;20814;-85
2022/01/02 02:11:40;;;;;;;3.70;3.17;;;3.70;95.30;;;;;;6276280;22;20279;-84
2022/01/02 02:14:08;;;;;;;3.57;3.10;;;3.70;95.30;;;;;;6275302;22;20255;-85
2022/01/02 02:16:36;;;;;;;5.13;3.33;;;3.70;95.30;;;;;;6276159;22;20191;-86
2022/01/02 02:19:04;;;;;;;3.27;2.83;;;3.70;95.20;;;;;;6276136;22;20604;-85
2022/01/02 02:21:34;;;;;;;3.70;3.00;;;3.70;95.20;;;;;;6277082;22;20471;-86
2022/01/02 02:24:02;;;;;;;4.83;3.40;;;3.70;95.10;;;;;;6278286;22;20207;-85
2022/01/02 02:26:29;;;;;;;3.90;3.00;;;3.70;95.10;;;;;;6274943;22;20172;-86
2022/01/02 02:28:56;;;;;;;5.17;3.40;;;3.70;95.30;;;;;;6275007;22;20200;-87
2022/01/02 02:31:23;;;;;;;3.80;3.00;;;3.70;95.30;;;;;;6275827;22;20273;-86
2022/01/02 02:33:50;;;;;;;4.13;3.10;;;3.70;95.10;;;;;;6274513;22;20396;-86
2022/01/02 02:36:17;;;;;;;4.80;3.10;;;3.70;95.20;;;;;;6274851;22;20528;-88
2022/01/02 02:38:46;;;;;;;3.80;2.90;;;3.70;95.00;;;;;;6274844;22;20181;-86
2022/01/02 02:41:13;;;;;;;4.27;3.00;;;3.80;94.80;;;;;;6274325;22;20200;-86
2022/01/02 02:43:47;;;;;;;3.93;3.00;;;3.80;94.80;;;;;;6274051;22;20933;-86
2022/01/02 02:49:04;;;;;;;5.50;3.33;;;3.80;94.80;;;;;;6273941;22;20156;-85
2022/01/02 02:51:42;;;;;;;3.57;2.80;;;3.70;94.80;;;;;;6274461;22;20188;-87
2022/01/02 02:54:11;;;;;;;4.90;3.17;;;3.70;94.80;;;;;;6274137;22;20192;-86
2022/01/02 02:56:53;;;;;;;4.03;3.07;;;3.60;94.80;;;;;;6275250;22;20171;-86
2022/01/02 02:59:21;;;;;;;3.27;2.70;;;3.60;94.80;;;;;;6274017;22;20532;-85
2022/01/02 03:01:48;;;;;;;5.50;2.93;;;3.60;94.80;;;;;;6274931;22;20231;-86
2022/01/02 03:04:15;;;;;;;4.90;3.10;;;3.60;95.00;;;;;;6274128;22;20267;-86
2022/01/02 03:06:42;;;;;;;3.53;2.50;;;3.60;94.80;;;;;;6275008;22;20171;-86
2022/01/02 03:09:11;;;;;;;3.80;2.87;;;3.50;94.80;;;;;;6274398;22;20198;-88
2022/01/02 03:11:39;;;;;;;4.40;2.93;;;3.60;94.80;;;;;;6274730;22;20246;-86
2022/01/02 03:14:07;;;;;;;4.03;2.80;;;3.50;94.70;;;;;;6273852;22;20519;-85
2022/01/02 03:16:35;;;;;;;3.57;2.80;;;3.40;94.80;;;;;;6274490;22;20262;-86
2022/01/02 03:19:01;;;;;;;4.43;2.90;;;3.40;94.70;;;;;;6274282;22;20173;-86
2022/01/02 03:21:28;;;;;;;3.20;2.57;;;3.30;95.10;;;;;;6274691;22;20255;-86
2022/01/02 03:23:56;;;;;;;4.40;3.10;;;3.20;95.50;;;;;;6273678;22;20171;-85
2022/01/02 03:26:24;;;;;;;3.17;2.60;;;3.30;95.50;;;;;;6274835;22;20175;-84
2022/01/02 03:28:51;;;;;;;3.70;2.73;;;3.40;95.30;;;;;;6273742;22;20179;-86
2022/01/02 03:31:19;;;;;;;2.90;2.33;;;3.40;95.00;;;;;;6274774;22;20192;-85
2022/01/02 03:33:46;;;;;;;3.10;2.50;;;3.40;94.80;;;;;;6275325;22;20169;-85
2022/01/02 03:36:13;;;;;;;3.37;2.87;;;3.20;95.30;;;;;;6275161;22;20296;-87
2022/01/02 03:38:40;;;;;;;3.20;2.60;;;3.20;95.40;;;;;;6276509;22;20171;-86
2022/01/02 03:41:07;;;;;;;3.63;3.00;;;3.20;95.30;;;;;;6276096;22;20516;-87
2022/01/02 03:43:36;;;;;;;5.13;2.60;;;3.20;95.40;;;;;;6276606;22;20172;-85
2022/01/02 03:46:04;;;;;;;4.43;2.73;;;3.10;95.60;;;;;;6276017;22;20703;-84
2022/01/02 03:48:32;;;;;;;3.50;2.73;;;3.10;95.70;;;;;;6277124;22;20164;-85
2022/01/02 03:50:59;;;;;;;3.63;2.40;;;3.10;95.70;;;;;;6276593;22;20204;-87
2022/01/02 03:53:27;;;;;;;3.23;2.53;;;3.10;95.80;;;;;;6277056;22;20192;-87
2022/01/02 03:55:54;;;;;;;6.00;2.57;;;3.10;96.00;;;;;;6277500;22;20493;-85
2022/01/02 03:58:21;;;;;;;4.33;2.67;;;3.10;95.90;;;;;;6278855;22;20164;-84
2022/01/02 04:00:50;;;;;;;4.00;2.80;;;3.20;95.70;;;;;;6278458;22;20655;-87
2022/01/02 04:03:17;;;;;;;3.90;2.20;;;3.20;95.60;;;;;;6277602;22;20164;-86
2022/01/02 04:05:44;;;;;;;2.83;2.53;;;3.30;95.60;;;;;;6273689;22;20580;-85
2022/01/02 04:08:12;;;;;;;3.67;2.60;;;3.30;95.30;;;;;;6274496;22;20476;-85
2022/01/02 04:10:39;;;;;;;3.20;2.50;;;3.30;95.30;;;;;;6273847;22;20200;-86
2022/01/02 04:13:07;;;;;;;3.10;2.50;;;3.40;95.00;;;;;;6274544;22;20171;-85
2022/01/02 04:15:35;;;;;;;3.07;2.50;;;3.30;94.80;;;;;;6272770;22;20550;-89
2022/01/02 04:18:04;;;;;;;4.10;2.53;;;3.20;95.30;;;;;;6274876;22;20543;-85
2022/01/02 04:20:31;;;;;;;2.60;2.10;;;3.10;95.40;;;;;;6273181;22;20196;-86
2022/01/02 04:22:58;;;;;;;2.67;2.30;;;3.10;95.50;;;;;;6274474;22;20171;-86
2022/01/02 04:25:25;;;;;;;5.27;2.33;;;3.10;95.50;;;;;;6273269;22;20200;-87
2022/01/02 04:27:52;;;;;;;4.30;2.40;;;3.20;95.20;;;;;;6274361;22;20635;-85
2022/01/02 04:30:19;;;;;;;2.87;2.30;;;3.20;95.00;;;;;;6273787;22;20202;-87
2022/01/02 04:32:49;;;;;;;2.70;2.40;;;3.20;95.10;;;;;;6274189;22;20512;-85
2022/01/02 04:35:17;;;;;;;3.83;2.30;;;3.10;95.20;;;;;;6273499;22;20632;-86
2022/01/02 04:37:46;;;;;;;3.43;2.47;;;3.00;95.40;;;;;;6246874;22;20352;-86
2022/01/02 04:40:13;;;;;;;3.23;2.57;;;2.90;95.70;;;;;;6274257;22;20204;-85
2022/01/02 04:42:40;;;;;;;4.13;2.50;;;3.00;95.80;;;;;;6276694;22;20169;-87
2022/01/02 04:45:08;;;;;;;2.60;2.20;;;3.00;95.70;;;;;;6275428;22;20369;-85
2022/01/02 04:47:35;;;;;;;2.77;2.27;;;3.00;95.40;;;;;;6276226;22;20571;-88
2022/01/02 04:50:04;;;;;;;2.83;2.50;;;3.10;95.50;;;;;;6275669;22;20203;-86
2022/01/02 04:52:32;;;;;;;4.83;2.40;;;3.00;95.40;;;;;;6249212;22;20197;-84
2022/01/02 04:54:59;;;;;;;3.63;2.40;;;3.00;95.50;;;;;;6275757;22;20224;-85
2022/01/02 04:57:27;;;;;;;3.80;2.67;;;3.10;95.60;;;;;;6277019;22;20471;-85
2022/01/02 04:59:54;;;;;;;3.10;2.20;;;3.10;95.40;;;;;;6249538;22;20192;-84
2022/01/02 05:02:21;;;;;;;2.80;2.03;;;3.10;95.30;;;;;;6278105;22;20169;-85
2022/01/02 05:04:47;;;;;;;5.33;2.77;;;3.10;95.30;;;;;;6276561;22;20192;-84
2022/01/02 05:07:15;;;;;;;2.43;2.00;;;3.10;95.40;;;;;;6278537;22;20175;-84
2022/01/02 05:09:44;;;;;;;3.73;2.20;;;3.10;95.30;;;;;;6276969;22;20511;-84
2022/01/02 05:12:11;;;;;;;2.20;2.00;;;3.10;95.20;;;;;;6278365;22;20192;-84
2022/01/02 05:14:38;;;;;;;2.57;2.10;;;3.10;95.10;;;;;;6276643;22;20193;-83
2022/01/02 05:17:06;;;;;;;2.90;2.40;;;3.10;95.10;;;;;;6278744;22;20189;-84
2022/01/02 05:19:33;;;;;;;3.37;2.47;;;3.00;95.00;;;;;;6278461;22;20263;-84
2022/01/02 05:22:01;;;;;;;3.27;2.40;;;3.00;95.00;;;;;;6279185;22;20542;-85
2022/01/02 05:24:28;;;;;;;4.43;2.20;;;3.00;95.00;;;;;;6251051;22;20279;-85
2022/01/02 05:26:56;;;;;;;2.53;2.20;;;2.90;95.20;;;;;;6279029;22;20175;-84
2022/01/02 05:29:24;;;;;;;2.57;2.17;;;2.90;95.30;;;;;;6279305;22;20194;-84
2022/01/02 05:31:51;;;;;;;1.90;1.77;;;2.80;95.40;;;;;;6252497;22;20287;-85
2022/01/02 05:34:18;;;;;;;3.87;2.20;;;2.80;95.50;;;;;;6251789;22;20394;-86
2022/01/02 05:36:48;;;;;;;2.53;2.13;;;2.90;95.40;;;;;;6281968;22;20276;-85
2022/01/02 05:39:17;;;;;;;3.30;2.30;;;2.90;95.20;;;;;;6276945;22;20298;-85
2022/01/02 05:41:45;;;;;;;3.40;2.13;;;2.90;95.00;;;;;;6275656;22;20242;-86
2022/01/02 05:44:14;;;;;;;2.90;2.10;;;2.80;95.10;;;;;;6275166;22;20524;-85
2022/01/02 05:46:41;;;;;;;2.50;2.13;;;2.80;95.10;;;;;;6276126;22;20168;-85
2022/01/02 05:49:08;;;;;;;2.40;2.20;;;2.80;95.10;;;;;;6276287;22;20169;-84
2022/01/02 05:51:36;;;;;;;2.80;2.10;;;2.70;95.20;;;;;;6275535;22;20644;-85
2022/01/02 05:54:04;;;;;;;3.10;2.43;;;2.80;95.30;;;;;;6275158;22;20164;-84
2022/01/02 05:56:31;;;;;;;3.33;2.10;;;2.70;95.20;;;;;;6278340;22;20521;-85
2022/01/02 05:58:58;;;;;;;3.37;2.50;;;2.70;95.40;;;;;;6278197;22;20196;-85
2022/01/02 06:01:27;;;;;;;2.93;2.20;;;2.60;95.40;;;;;;6228321;22;20179;-84
2022/01/02 06:03:54;;;;;;;2.53;2.20;;;2.50;95.90;;;;;;6279590;22;20183;-84
2022/01/02 06:06:21;;;;;;;2.97;2.30;;;2.40;96.10;;;;;;6280510;22;20196;-85
2022/01/02 06:08:48;;;;;;;2.33;2.00;;;2.50;96.00;;;;;;6281054;22;20200;-84
2022/01/02 06:11:15;;;;;;;2.70;2.20;;;2.40;96.20;;;;;;6280788;22;20263;-87
2022/01/02 06:13:42;;;;;;;3.13;2.30;;;2.50;96.30;;;;;;6281161;22;20169;-84
2022/01/02 06:16:11;;;;;;;5.13;2.27;;;2.60;96.00;;;;;;6281164;22;20218;-83
2022/01/02 06:18:40;;;;;;;2.67;2.00;;;2.70;95.60;;;;;;6282005;22;20592;-84
2022/01/02 06:21:07;;;;;;;4.00;2.20;;;2.80;95.30;;;;;;6281942;22;20271;-85
2022/01/02 06:23:34;;;;;;;2.90;2.40;;;2.80;95.30;;;;;;6285362;22;20220;-84
2022/01/02 06:26:01;;;;;;;3.07;2.00;;;2.80;95.00;;;;;;6282793;22;20257;-84
2022/01/02 06:28:28;;;;;;;4.03;2.07;;;2.90;95.10;;;;;;6281094;22;20176;-86
2022/01/02 06:30:55;;;;;;;2.97;1.93;;;2.80;94.60;;;;;;6281114;22;20223;-84
2022/01/02 06:33:22;;;;;;;2.53;1.90;;;2.70;94.60;;;;;;6282964;22;20189;-85
2022/01/02 06:35:51;;;;;;;2.60;2.20;;;2.70;95.10;;;;;;6281318;22;20248;-83
2022/01/02 06:38:21;;;;;;;4.77;2.97;;;2.70;95.30;;;;;;6281012;22;20676;-86
2022/01/02 06:40:48;;;;;;;5.30;3.07;;;2.70;95.00;;;;;;6280354;22;20291;-84
2022/01/02 06:43:16;;;;;;;4.43;3.17;;;2.80;94.60;;;;;;6280917;22;20228;-84
2022/01/02 06:45:44;;;;;;;6.53;4.17;;;2.80;94.60;;;;;;6279732;22;20276;-84
2022/01/02 06:48:11;;;;;;;8.00;3.97;;;2.70;94.60;;;;;;6281093;22;20168;-84
2022/01/02 06:50:39;;;;;;;10.73;5.07;;;2.70;94.90;;;;;;6279226;22;20196;-84
2022/01/02 06:53:08;;;;;;;8.77;4.60;;;2.70;95.10;;;;;;6280477;22;20227;-83
2022/01/02 06:55:35;;;;;;;10.83;5.50;;;2.70;95.00;;;;;;6279136;22;20203;-83
2022/01/02 06:58:03;;;;;;;6.37;3.30;;;2.80;94.60;;;;;;6280328;22;20164;-84
2022/01/02 07:00:30;;;;;;;6.43;3.47;;;2.80;94.60;;;;;;6278847;22;20724;-86
2022/01/02 07:02:56;;;;;;;5.23;3.40;;;2.80;94.60;;;;;;6253705;22;20176;-83
2022/01/02 07:05:23;;;;;;;4.83;3.10;;;2.80;94.90;;;;;;6278412;22;20192;-83
2022/01/02 07:07:52;;;;;;;5.70;3.30;;;2.90;94.60;;;;;;6279602;22;20165;-83
2022/01/02 07:10:21;;;;;;;4.37;3.17;;;2.90;94.60;;;;;;6278911;22;20287;-83
2022/01/02 07:12:48;;;;;;;5.30;3.20;;;2.80;94.60;;;;;;6280008;22;20188;-83
2022/01/02 07:15:15;;;;;;;7.57;3.10;;;2.90;94.60;;;;;;6278170;22;20199;-83
2022/01/02 07:17:43;;;;;;;4.30;3.13;;;3.00;94.70;;;;;;6280346;22;20275;-85
2022/01/02 07:20:11;;;;;;;5.20;2.73;;;3.10;94.70;;;;;;6252617;22;20192;-84
2022/01/02 07:22:40;;;;;;;4.00;2.80;;;3.10;94.40;;;;;;6279830;22;20168;-83
2022/01/02 07:25:09;;;;;;;4.20;2.50;;;3.20;94.30;;;;;;6253567;22;20275;-83
2022/01/02 07:27:37;;;;;;;3.37;2.50;;;3.30;93.90;;;;;;6279797;22;20174;-83
2022/01/02 07:30:05;;;;;;;2.93;2.50;;;3.30;94.00;;;;;;6279552;22;20192;-85
2022/01/02 07:32:32;;;;;;;3.33;2.03;;;3.40;94.10;;;;;;6280151;22;20193;-85
2022/01/02 07:34:59;;;;;;;2.67;2.03;;;3.40;94.30;;;;;;6279321;22;20202;-86
2022/01/02 07:37:26;;;;;;;3.10;2.30;;;3.40;94.20;;;;;;6281772;22;20187;-85
2022/01/02 07:39:54;;;;;;;2.83;2.30;;;3.50;93.90;;;;;;6280747;22;20504;-85
2022/01/02 07:42:20;;;;;;;2.50;1.87;;;3.60;93.70;;;;;;6280054;22;20549;-86
2022/01/02 07:44:49;;;;;;;2.70;2.07;;;3.70;93.50;;;;;;6278680;22;20279;-87
2022/01/02 07:47:16;;;;;;;3.53;2.00;;;3.80;93.80;;;;;;6281687;22;20168;-86
2022/01/02 07:49:44;;;;;;;2.00;1.80;;;3.90;93.40;;;;;;6280843;22;20723;-85
2022/01/02 07:52:11;;;;;;;2.27;1.80;;;3.90;93.20;;;;;;6285066;22;20584;-88
2022/01/02 07:54:38;;;;;;;3.00;2.37;;;4.00;93.60;;;;;;6283900;22;20216;-85
2022/01/02 07:57:06;;;;;;;2.40;2.10;;;4.20;93.00;;;;;;6276859;22;20168;-86
2022/01/02 07:59:33;;;;;;;3.37;2.10;;;4.40;92.60;;;;;;6274921;22;20246;-87
2022/01/02 08:02:02;;;;;;;2.43;1.73;;;4.50;91.60;;;;;;6276304;22;20169;-86
2022/01/02 08:04:29;;;;;;;2.63;1.90;;;4.60;91.50;;;;;;6274110;22;20483;-86
2022/01/02 08:06:56;;;;;;;3.47;2.03;;;4.80;91.00;;;;;;6275096;22;20175;-86
2022/01/02 08:09:23;;;;;;;2.37;2.03;;;4.80;90.90;;;;;;6274365;22;20192;-92
2022/01/02 08:11:49;;;;;;;4.33;2.20;;;4.90;90.70;;;;;;6274102;22;20647;-88
2022/01/02 08:14:16;;;;;;;6.53;2.10;;;5.00;90.90;;;;;;6274158;22;20670;-87
2022/01/02 08:16:44;;;;;;;2.63;1.83;;;5.10;90.90;;;;;;6277685;22;20231;-88
2022/01/02 08:19:12;;;;;;;2.10;1.83;;;5.20;90.50;;;;;;6277923;22;21067;-89
2022/01/02 08:21:40;;;;;;;2.57;1.80;;;5.20;90.30;;;;;;6279191;22;20164;-87
2022/01/02 08:24:07;;;;;;;2.00;1.77;;;5.30;90.00;;;;;;6278686;22;20168;-87
2022/01/02 08:26:35;;;;;;;1.93;1.70;;;5.30;90.50;;;;;;6280355;22;20223;-87
2022/01/02 08:29:02;;;;;;;2.30;2.00;;;5.30;90.80;;;;;;6280800;22;20199;-88
2022/01/02 08:31:30;;;;;;;1.87;1.73;;;5.40;90.70;;;;;;6254772;22;20600;-87
2022/01/02 08:33:58;;;;;;;2.17;1.90;;;5.50;89.80;;;;;;6279836;22;20950;-87
2022/01/02 08:36:27;;;;;;;2.17;1.70;;;5.60;89.40;;;;;;6282248;22;20169;-88
2022/01/02 08:38:54;;;;;;;2.73;1.73;;;5.70;90.10;;;;;;6281751;22;20248;-88
2022/01/02 08:41:21;;;;;;;2.27;1.77;;;5.80;89.50;;;;;;6283449;22;20169;-87
2022/01/02 08:43:48;;;;;;;1.70;1.57;;;5.80;89.50;;;;;;6283960;22;20203;-87
2022/01/02 08:46:15;;;;;;;2.90;1.83;;;5.90;89.50;;;;;;6283562;22;20200;-87
2022/01/02 08:48:43;;;;;;;1.90;1.60;;;6.20;89.70;;;;;;6286387;22;20216;-87
2022/01/02 08:51:12;;;;;;;2.50;1.60;;;6.60;84.00;;;;;;6287185;22;20545;-86
2022/01/02 08:53:41;;;;;;;2.22;1.67;;;6.90;83.60;;;;;;6285718;22;20184;-86
2022/01/02 08:56:08;;;;;;;1.88;1.60;;;7.00;83.20;;;;;;6284580;22;20280;-87
2022/01/02 08:58:36;;;;;;;1.98;1.77;;;7.10;82.00;;;;;;6286172;22;20580;-87
2022/01/02 09:01:03;;;;;;;1.70;1.60;;;7.40;83.90;;;;;;6258956;22;20220;-87
2022/01/02 09:03:30;;;;;;;1.95;1.48;;;7.70;79.40;;;;;;6287248;22;20196;-86
2022/01/02 09:05:57;;;;;;;2.03;1.80;;;8.20;78.00;;;;;;6290167;22;20202;-87
2022/01/02 09:08:25;;;;;;;1.65;1.55;;;9.00;76.20;;;;;;6264578;22;20548;-87
2022/01/02 09:10:53;;;;;;;2.50;1.90;;;9.80;68.80;;;;;;6289287;22;20227;-87
2022/01/02 09:16:41;;;;;;;2.10;1.90;;;11.00;48.80;;;;;;6292153;22;20189;-87
2022/01/02 09:22:28;;;;;;;3.78;1.70;;;10.70;53.20;;;;;;6206923;22;20220;-87
2022/01/02 09:24:59;;;;;;;1.90;1.70;;;10.70;55.30;;;;;;6296122;22;20279;-88
2022/01/02 09:33:31;;;;;;;2.17;1.85;;;10.20;55.30;;;;;;6268755;22;20246;-86
2022/01/02 09:35:58;;;;;;;2.50;1.60;;;10.40;56.90;;;;;;6261149;22;20165;-87
2022/01/02 09:38:25;;;;;;;2.88;1.67;;;11.20;54.40;;;;;;6279250;22;20252;-88
2022/01/02 09:40:53;;;;;;;2.35;1.77;;;12.30;48.90;;;;;;6259435;22;20248;-88
2022/01/02 09:43:21;;;;;;;3.90;1.83;;;13.70;42.20;;;;;;6256394;22;20521;-89
2022/01/02 09:45:50;;;;;;;4.40;2.45;;;15.00;37.40;;;;;;6284261;22;20196;-85
2022/01/02 09:48:17;;;;;;;3.55;2.13;;;16.10;30.50;;;;;;6286541;22;20259;-89
2022/01/02 09:50:44;;;;;;;2.95;2.22;;;16.70;29.30;;;;;;6256441;22;20238;-87
2022/01/02 09:53:11;;;;;;;2.28;2.05;;;16.80;29.40;;;;;;6285403;22;20275;-90
2022/01/02 09:55:39;;;;;;;3.50;2.00;;;16.90;29.50;;;;;;6286740;22;20252;-86
2022/01/02 09:58:11;;;;;;;2.13;1.92;;;17.10;29.60;;;;;;6285050;22;20247;-86
2022/01/02 10:00:43;;;;;;;2.10;1.90;;;17.10;29.60;;;;;;6286383;22;20196;-87
2022/01/02 10:03:12;;;;;;;2.15;2.00;;;16.60;29.20;;;;;;6285728;22;20167;-86
2022/01/02 10:05:54;;;;;;;2.45;2.17;;;16.20;28.90;;;;;;6283097;22;20196;-86
2022/01/02 10:08:24;;;;;;;2.13;1.88;;;15.90;28.60;;;;;;6289371;22;20222;-86
2022/01/02 10:11:00;;;;;;;2.70;1.90;;;15.30;28.10;;;;;;6286487;22;20196;-89
2022/01/02 10:13:41;;;;;;;1.70;1.60;;;14.80;27.70;;;;;;6282879;22;20180;-88
2022/01/02 10:16:25;;;;;;;2.67;1.60;;;14.10;27.10;;;;;;6285721;22;20248;-87
2022/01/02 10:18:54;;;;;;;1.50;1.40;;;13.60;27.70;;;;;;6286727;22;20214;-89
2022/01/02 10:21:28;;;;;;;1.70;1.30;;;13.30;27.70;;;;;;6287604;22;20251;-88
2022/01/02 10:24:10;;;;;;;1.30;1.20;;;13.00;26.10;;;;;;6286641;22;20207;-87
2022/01/02 10:26:38;;;;;;;1.33;1.23;;;12.80;28.30;;;;;;6287402;22;20181;-87
2022/01/02 10:29:12;;;;;;;1.50;1.40;;;12.60;28.20;;;;;;6286887;22;20159;-88
2022/01/02 10:31:42;;;;;;;1.50;1.40;;;12.70;28.80;;;;;;6286840;22;20169;-88
2022/01/02 10:34:09;;;;;;;1.58;1.42;;;12.90;31.30;;;;;;6284590;22;20267;-88
2022/01/02 10:36:40;;;;;;;2.20;1.40;;;13.00;30.90;;;;;;6259788;22;20153;-88
2022/01/02 10:39:12;;;;;;;3.55;1.80;;;13.30;31.20;;;;;;6259280;22;20177;-87
2022/01/02 10:41:41;;;;;;;1.70;1.60;;;13.80;29.30;;;;;;6286629;22;20171;-88
2022/01/02 10:44:31;;;;;;;1.52;1.42;;;14.30;27.30;;;;;;6282929;22;20156;-89
2022/01/02 10:47:11;;;;;;;2.63;1.75;;;14.90;25.60;;;;;;6281463;22;20461;-88
2022/01/02 10:49:49;;;;;;;1.55;1.45;;;15.30;26.70;;;;;;6286850;22;20192;-85
2022/01/02 10:52:21;;;;;;;1.65;1.45;;;15.70;26.10;;;;;;6286069;22;20646;-86
2022/01/02 10:54:49;;;;;;;1.30;1.20;;;16.30;23.00;;;;;;6283992;22;20191;-86
2022/01/02 10:57:16;;;;;;;1.38;1.27;;;16.80;22.20;;;;;;6281508;22;20207;-88
2022/01/02 10:59:44;;;;;;;2.00;1.30;;;17.30;22.70;;;;;;6278427;22;20235;-87
2022/01/02 11:02:16;;;;;;;1.40;1.30;;;17.70;20.00;;;;;;6281511;22;20172;-85
2022/01/02 11:04:49;;;;;;;1.63;1.30;;;17.70;17.50;;;;;;6288256;22;20279;-86
2022/01/02 11:07:22;;;;;;;2.53;1.38;;;17.90;17.90;;;;;;6264540;22;20481;-84
2022/01/02 11:09:50;;;;;;;1.38;1.27;;;18.00;17.00;;;;;;6278054;22;20204;-88
2022/01/02 11:12:18;;;;;;;1.75;1.25;;;18.10;18.00;;;;;;6278455;22;20247;-88
2022/01/02 11:14:45;;;;;;;1.38;1.23;;;17.60;18.30;;;;;;6280864;22;20527;-88
2022/01/02 11:17:15;;;;;;;1.10;1.10;;;16.90;18.80;;;;;;6282557;22;20275;-88
2022/01/02 11:19:42;;;;;;;1.13;1.10;;;16.30;19.10;;;;;;6284996;22;20300;-86
2022/01/02 11:22:13;;;;;;;1.30;1.20;;;15.90;19.60;;;;;;6286736;22;20497;-89
2022/01/02 11:24:47;;;;;;;1.30;1.20;;;15.40;20.60;;;;;;6284347;22;20212;-87
2022/01/02 11:27:23;;;;;;;1.50;1.27;;;14.90;20.80;;;;;;6287192;22;20195;-88
2022/01/02 11:29:51;;;;;;;1.35;1.25;;;14.50;22.20;;;;;;6256705;22;20191;-90
2022/01/02 11:32:24;;;;;;;1.45;1.20;;;14.30;24.00;;;;;;6282637;22;20224;-88
2022/01/02 11:34:51;;;;;;;1.20;1.10;;;14.20;24.30;;;;;;6281188;22;20196;-90
2022/01/02 11:37:26;;;;;;;1.58;1.48;;;14.30;23.30;;;;;;6281153;22;20243;-89
2022/01/02 11:39:55;;;;;;;2.00;1.40;;;14.20;24.50;;;;;;6278842;22;20187;-89
2022/01/02 11:42:45;;;;;;;2.17;1.40;;;14.20;24.10;;;;;;6278129;22;20487;-89
2022/01/02 11:45:41;;;;;;;1.33;1.23;;;14.10;24.30;;;;;;6279018;22;20275;-90
2022/01/02 11:48:30;;;;;;;1.83;1.23;;;14.20;23.80;;;;;;6279964;22;20161;-88
2022/01/02 11:50:57;;;;;;;1.50;1.40;;;14.30;23.10;;;;;;6279311;22;20562;-88
2022/01/02 11:53:26;;;;;;;1.40;1.20;;;14.20;23.30;;;;;;6255676;22;20267;-88
2022/01/02 11:55:54;;;;;;;2.63;1.30;;;14.30;23.50;;;;;;6282084;22;20275;-89
2022/01/02 11:59:02;;;;;;;1.45;1.35;;;14.30;23.20;;;;;;6284988;22;20267;-88
2022/01/02 12:01:48;;;;;;;2.90;2.42;;;14.20;23.00;;;;;;6285753;22;20188;-89
2022/01/02 12:04:17;;;;;;;2.55;1.50;;;14.00;24.40;;;;;;6285039;22;20192;-88
2022/01/02 12:06:45;;;;;;;2.42;1.60;;;14.00;24.70;;;;;;6284037;22;20169;-88
2022/01/02 12:09:36;;;;;;;2.40;2.20;;;13.90;26.40;;;;;;6284478;22;20173;-88
2022/01/02 12:12:07;;;;;;;1.25;1.13;;;13.90;25.20;;;;;;6286850;22;20204;-88
2022/01/02 12:14:53;;;;;;;1.52;1.40;;;13.90;23.70;;;;;;6258538;22;20203;-88
2022/01/02 12:17:23;;;;;;;5.40;3.00;;;14.10;24.70;;;;;;6285473;22;20275;-88
2022/01/02 12:20:05;;;;;;;3.90;3.05;;;14.10;25.60;;;;;;6285027;22;20231;-88
2022/01/02 12:22:56;;;;;;;2.85;1.20;;;14.20;23.60;;;;;;6284643;22;20204;-89
2022/01/02 12:25:25;;;;;;;2.33;1.10;;;14.40;23.80;;;;;;6257109;22;20204;-89
2022/01/02 12:27:59;;;;;;;2.70;1.40;;;14.50;23.90;;;;;;6281056;22;20213;-91
2022/01/02 12:30:26;;;;;;;1.60;1.48;;;14.80;21.70;;;;;;6283712;22;20276;-89
2022/01/02 12:32:54;;;;;;;1.30;1.20;;;14.80;21.70;;;;;;6286410;22;20176;-89
2022/01/02 12:35:25;;;;;;;3.28;1.25;;;14.70;22.10;;;;;;6281564;22;20726;-89
2022/01/02 12:38:04;;;;;;;1.90;1.30;;;14.70;23.20;;;;;;6255676;22;20214;-89
2022/01/02 12:40:39;;;;;;;1.90;1.70;;;14.70;24.00;;;;;;6280853;22;20271;-89
2022/01/02 12:43:07;;;;;;;1.20;1.10;;;14.70;22.90;;;;;;6283402;22;20157;-89
2022/01/02 12:45:34;;;;;;;2.28;1.77;;;14.80;23.20;;;;;;6283881;22;20232;-89
2022/01/02 12:48:01;;;;;;;2.63;2.05;;;14.80;22.70;;;;;;6282702;22;20164;-89
2022/01/02 12:50:31;;;;;;;1.42;1.33;;;14.80;22.00;;;;;;6282099;22;20239;-89
2022/01/02 12:52:59;;;;;;;1.75;1.27;;;14.90;21.80;;;;;;6284755;22;20176;-88
2022/01/02 12:55:29;;;;;;;1.60;1.50;;;14.80;21.90;;;;;;6283055;22;20227;-89
2022/01/02 12:58:07;;;;;;;1.35;1.13;;;14.80;21.90;;;;;;6286707;22;20260;-88
2022/01/02 13:00:35;;;;;;;2.25;1.00;;;14.70;22.30;;;;;;6286331;22;20196;-89
2022/01/02 13:03:04;;;;;;;0.90;0.90;;;14.60;22.50;;;;;;6237308;22;20172;-88
2022/01/02 13:05:55;;;;;;;1.40;1.10;;;14.50;21.90;;;;;;6261890;22;20196;-89
2022/01/02 13:08:26;;;;;;;1.40;1.30;;;14.60;22.60;;;;;;6288934;22;20168;-89
2022/01/02 13:10:53;;;;;;;0.93;0.90;;;14.80;22.40;;;;;;6288446;22;20267;-88
2022/01/02 13:13:31;;;;;;;9.48;5.07;;;14.90;20.30;;;;;;6291219;22;20228;-88
2022/01/02 13:16:22;;;;;;;1.73;1.63;;;15.00;20.10;;;;;;6289510;22;20675;-88
2022/01/02 13:18:49;;;;;;;1.35;1.08;;;15.00;20.60;;;;;;6291671;22;20161;-88
2022/01/02 13:21:18;;;;;;;1.60;1.00;;;15.20;19.70;;;;;;6262443;22;20266;-88